地図

経路データ

SID SEASON NUMBER BASIN SUBBASIN NAME ISO_TIME NATURE LAT LON WMO_WIND WMO_PRES WMO_AGENCY TRACK_TYPE DIST2LAND LANDFALL IFLAG USA_AGENCY USA_ATCF_ID USA_LAT USA_LON USA_RECORD USA_STATUS USA_WIND USA_PRES USA_SSHS USA_R34_NE USA_R34_SE USA_R34_SW USA_R34_NW USA_R50_NE USA_R50_SE USA_R50_SW USA_R50_NW USA_R64_NE USA_R64_SE USA_R64_SW USA_R64_NW USA_POCI USA_ROCI USA_RMW USA_EYE TOKYO_LAT TOKYO_LON TOKYO_GRADE TOKYO_WIND TOKYO_PRES TOKYO_R50_DIR TOKYO_R50_LONG TOKYO_R50_SHORT TOKYO_R30_DIR TOKYO_R30_LONG TOKYO_R30_SHORT TOKYO_LAND CMA_LAT CMA_LON CMA_CAT CMA_WIND CMA_PRES HKO_LAT HKO_LON HKO_CAT HKO_WIND HKO_PRES NEWDELHI_LAT NEWDELHI_LON NEWDELHI_GRADE NEWDELHI_WIND NEWDELHI_PRES NEWDELHI_CI NEWDELHI_DP NEWDELHI_POCI REUNION_LAT REUNION_LON REUNION_TYPE REUNION_WIND REUNION_PRES REUNION_TNUM REUNION_CI REUNION_RMW REUNION_R34_NE REUNION_R34_SE REUNION_R34_SW REUNION_R34_NW REUNION_R50_NE REUNION_R50_SE REUNION_R50_SW REUNION_R50_NW REUNION_R64_NE REUNION_R64_SE REUNION_R64_SW REUNION_R64_NW BOM_LAT BOM_LON BOM_TYPE BOM_WIND BOM_PRES BOM_TNUM BOM_CI BOM_RMW BOM_R34_NE BOM_R34_SE BOM_R34_SW BOM_R34_NW BOM_R50_NE BOM_R50_SE BOM_R50_SW BOM_R50_NW BOM_R64_NE BOM_R64_SE BOM_R64_SW BOM_R64_NW BOM_ROCI BOM_POCI BOM_EYE BOM_POS_METHOD BOM_PRES_METHOD NADI_LAT NADI_LON NADI_CAT NADI_WIND NADI_PRES WELLINGTON_LAT WELLINGTON_LON WELLINGTON_WIND WELLINGTON_PRES DS824_LAT DS824_LON DS824_STAGE DS824_WIND DS824_PRES TD9636_LAT TD9636_LON TD9636_STAGE TD9636_WIND TD9636_PRES TD9635_LAT TD9635_LON TD9635_WIND TD9635_PRES TD9635_ROCI NEUMANN_LAT NEUMANN_LON NEUMANN_CLASS NEUMANN_WIND NEUMANN_PRES MLC_LAT MLC_LON MLC_CLASS MLC_WIND MLC_PRES USA_GUST BOM_GUST BOM_GUST_PER REUNION_GUST REUNION_GUST_PER USA_SEAHGT USA_SEARAD_NE USA_SEARAD_SE USA_SEARAD_SW USA_SEARAD_NW STORM_SPEED STORM_DIR
1970169N11252 1970 51 EP MM CONNIE 1970-06-17 12:00:00 TS 11.4000 -108.400 25 hurdat_epa main 934 922 O________OO___ hurdat_epa EP031970 11.4000 -108.400 TD 25 -1 11.4000 -108.400 TC 25 11.4000 -108.400 2 6 323
1970169N11252 1970 51 EP MM CONNIE 1970-06-17 15:00:00 TS 11.6497 -108.595 main 928 914 P________PP___ EP031970 11.6500 -108.590 TD 32 -1 11.6500 -108.590 TC 32 11.6485 -108.615 2 6 322
1970169N11252 1970 51 EP MM CONNIE 1970-06-17 18:00:00 TS 11.8995 -108.807 40 hurdat_epa main 914 910 O________OP___ hurdat_epa EP031970 11.9000 -108.800 TS 40 0 11.9000 -108.800 TC 40 11.8976 -108.835 2 7 318
1970169N11252 1970 51 EP MM CONNIE 1970-06-17 21:00:00 TS 12.1496 -109.046 main 910 900 P________PP___ EP031970 12.1500 -109.043 TS 42 0 12.1500 -109.043 TC 42 12.1478 -109.062 2 7 316
1970169N11252 1970 51 EP MM CONNIE 1970-06-18 00:00:00 TS 12.4000 -109.300 45 hurdat_epa main 900 893 O________OO___ hurdat_epa EP031970 12.4000 -109.300 TS 45 0 12.4000 -109.300 TC 45 12.4000 -109.300 2 7 316
1970169N11252 1970 51 EP MM CONNIE 1970-06-18 03:00:00 TS 12.6508 -109.550 main 890 884 P________PP___ EP031970 12.6500 -109.550 TS 45 0 12.6500 -109.550 TC 45 12.6541 -109.551 2 7 316
1970169N11252 1970 51 EP MM CONNIE 1970-06-18 06:00:00 TS 12.9015 -109.802 45 hurdat_epa main 884 879 O________OP___ hurdat_epa EP031970 12.9000 -109.800 TS 45 0 12.9000 -109.800 TC 45 12.9075 -109.808 2 7 316
1970169N11252 1970 51 EP MM CONNIE 1970-06-18 09:00:00 TS 13.1574 -110.058 main 878 875 P________PP___ EP031970 13.1575 -110.058 TS 45 0 13.1575 -110.058 TC 45 13.1572 -110.060 2 7 316
1970169N11252 1970 51 EP MM CONNIE 1970-06-18 12:00:00 TS 13.4000 -110.300 45 hurdat_epa main 875 873 O________OO___ hurdat_epa EP031970 13.4000 -110.300 TS 45 0 13.4000 -110.300 TC 45 13.4000 -110.300 2 6 316
1970169N11252 1970 51 EP MM CONNIE 1970-06-18 15:00:00 TS 13.6056 -110.510 main 873 872 P________PP___ EP031970 13.6000 -110.508 TS 45 0 13.6000 -110.508 TC 45 13.6280 -110.519 2 6 316
1970169N11252 1970 51 EP MM CONNIE 1970-06-18 18:00:00 TS 13.8100 -110.705 45 hurdat_epa main 872 864 O________OP___ hurdat_epa EP031970 13.8000 -110.700 TS 45 0 13.8000 -110.700 TC 45 13.8499 -110.723 2 6 319
1970169N11252 1970 51 EP MM CONNIE 1970-06-18 21:00:00 TS 14.0484 -110.909 main 871 863 P________PP___ EP031970 14.0425 -110.908 TS 45 0 14.0425 -110.908 TC 45 14.0718 -110.916 2 6 322
1970169N11252 1970 51 EP MM CONNIE 1970-06-19 00:00:00 TS 14.3000 -111.100 45 hurdat_epa main 863 855 O________OO___ hurdat_epa EP031970 14.3000 -111.100 TS 45 0 14.3000 -111.100 TC 45 14.3000 -111.100 2 6 326
1970169N11252 1970 51 EP MM CONNIE 1970-06-19 03:00:00 TS 14.5493 -111.256 main 863 847 P________PP___ EP031970 14.5500 -111.250 TS 45 0 14.5500 -111.250 TC 45 14.5468 -111.278 2 6 329
1970169N11252 1970 51 EP MM CONNIE 1970-06-19 06:00:00 TS 14.8000 -111.410 45 hurdat_epa main 848 841 O________OP___ hurdat_epa EP031970 14.8000 -111.400 TS 45 0 14.8000 -111.400 TC 45 14.7999 -111.450 2 6 327
1970169N11252 1970 51 EP MM CONNIE 1970-06-19 09:00:00 TS 15.0566 -111.598 main 843 843 P________PP___ EP031970 15.0575 -111.593 TS 45 0 15.0575 -111.593 TC 45 15.0530 -111.622 2 6 323
1970169N11252 1970 51 EP MM CONNIE 1970-06-19 12:00:00 TS 15.3000 -111.800 45 hurdat_epa main 846 842 O________OO___ hurdat_epa EP031970 15.3000 -111.800 TS 45 0 15.3000 -111.800 TC 45 15.3000 -111.800 2 6 319
1970169N11252 1970 51 EP MM CONNIE 1970-06-19 15:00:00 TS 15.5089 -112.001 main 851 834 P________PP___ EP031970 15.5000 -112.000 TS 45 0 15.5000 -112.000 TC 45 15.5444 -112.005 2 6 317
1970169N11252 1970 51 EP MM CONNIE 1970-06-19 18:00:00 TS 15.7160 -112.203 45 hurdat_epa main 837 811 O________OP___ hurdat_epa EP031970 15.7000 -112.200 TS 45 0 15.7000 -112.200 TC 45 15.7801 -112.215 2 6 319
1970169N11252 1970 51 EP MM CONNIE 1970-06-19 21:00:00 TS 15.9661 -112.409 main 811 797 P________PP___ EP031970 15.9575 -112.407 TS 45 0 15.9575 -112.407 TC 45 16.0007 -112.417 2 6 322
1970169N11252 1970 51 EP MM CONNIE 1970-06-20 00:00:00 TS 16.2000 -112.600 45 hurdat_epa main 797 780 O________OO___ hurdat_epa EP031970 16.2000 -112.600 TS 45 0 16.2000 -112.600 TC 45 16.2000 -112.600 2 5 320
1970169N11252 1970 51 EP MM CONNIE 1970-06-20 03:00:00 TS 16.3663 -112.761 main 783 773 P________PP___ EP031970 16.3650 -112.765 TS 45 0 16.3650 -112.765 TC 45 16.3714 -112.743 2 4 317
1970169N11252 1970 51 EP MM CONNIE 1970-06-20 06:00:00 TS 16.5045 -112.893 45 hurdat_epa main 777 767 O________OP___ hurdat_epa EP031970 16.5000 -112.900 TS 45 0 16.5000 -112.900 TC 45 16.5223 -112.865 2 4 322
1970169N11252 1970 51 EP MM CONNIE 1970-06-20 09:00:00 TS 16.6524 -112.996 main 761 755 P________PP___ EP031970 16.6500 -113.000 TS 45 0 16.6500 -113.000 TC 45 16.6621 -112.980 2 4 326
1970169N11252 1970 51 EP MM CONNIE 1970-06-20 12:00:00 TS 16.8000 -113.100 45 hurdat_epa main 755 745 O________OO___ hurdat_epa EP031970 16.8000 -113.100 TS 45 0 16.8000 -113.100 TC 45 16.8000 -113.100 2 4 322
1970169N11252 1970 51 EP MM CONNIE 1970-06-20 15:00:00 TS 16.9533 -113.244 main 739 734 P________PP___ EP031970 16.9500 -113.243 TS 40 0 16.9500 -113.243 TC 40 16.9663 -113.251 2 4 317
1970169N11252 1970 51 EP MM CONNIE 1970-06-20 18:00:00 TS 17.1060 -113.401 35 hurdat_epa main 739 725 O________OP___ hurdat_epa EP031970 17.1000 -113.400 TS 35 0 17.1000 -113.400 TC 35 17.1300 -113.407 2 4 317
1970169N11252 1970 51 EP MM CONNIE 1970-06-20 21:00:00 TS 17.2678 -113.558 main 730 720 P________PP___ EP031970 17.2650 -113.557 TS 32 -1 17.2650 -113.557 TC 32 17.2788 -113.560 2 4 316
1970169N11252 1970 51 EP MM CONNIE 1970-06-21 00:00:00 TS 17.4000 -113.700 30 hurdat_epa main 726 722 O________OO___ hurdat_epa EP031970 17.4000 -113.700 TD 30 -1 17.4000 -113.700 TC 30 17.4000 -113.700 6 3 310
1970169N11252 1970 51 EP MM CONNIE 1970-06-21 03:00:00 TS 17.4690 -113.810 main 722 722 P________PP___ EP031970 17.4650 -113.808 TD 30 -1 17.4650 -113.808 TC 30 17.4850 -113.820 6 2 299
1970169N11252 1970 51 EP MM CONNIE 1970-06-21 06:00:00 TS 17.5080 -113.905 30 hurdat_epa main 728 728 O________OP___ hurdat_epa EP031970 17.5000 -113.900 TD 30 -1 17.5000 -113.900 TC 30 17.5400 -113.923 6 2 294
1970169N11252 1970 51 EP MM CONNIE 1970-06-21 09:00:00 TS 17.5510 -114.001 main 724 724 P________PP___ EP031970 17.5450 -113.997 TD 30 -1 17.5450 -113.997 TC 30 17.5750 -114.014 6 2 297
1970169N11252 1970 51 EP MM CONNIE 1970-06-21 12:00:00 TS 17.6000 -114.100 30 hurdat_epa main 730 O________OO___ hurdat_epa EP031970 17.6000 -114.100 TD 30 -1 17.6000 -114.100 TC 30 17.6000 -114.100 6 2 296

IBTrACS Databaseについて

本データベースは、米国NOAAが公開する1842年以降の世界の熱帯低気圧のベストトラックデータアーカイブInternational Best Track Archive for Climate Stewardship (IBTrACS)を、ウェブで閲覧しやすい形式に変換したものです。

最終更新日:2021-12-08